Wednesday, September 19, 2018, 3:14 AM GMT
Back to Local

CYKZ, Toronto Buttonville

Location: , , Canada Lat: 43.867
Local Time: 3:14 AM GMT ( 3:14 GMT) Lon: -79.367
Time Zone: GMT Elev: 649 ft

Show me the last for .
Show Decoded

2018-09-19 03:00 METAR CYKZ 190300Z 34007KT 15SM FEW150 FEW260 15/13 A2993 RMK AC1CI2 AC TR
                 SLP134 DENSITY ALT 800FT =
2018-09-19 02:00 METAR CYKZ 190200Z 34005KT 15SM FEW030 15/13 A2992 RMK SC1 SC TR SLP132 DENSITY
                 ALT 800FT =
2018-09-19 01:00 METAR CYKZ 190100Z 36011G17KT 15SM FEW030 15/13 A2992 RMK SC1 SC TR SLP132
                 DENSITY ALT 900FT =
2018-09-19 00:00 METAR CYKZ 190000Z 34009KT 15SM FEW100 FEW250 17/14 A2990 RMK AC1CI1 AC TR CI TR
                 SLP124 DENSITY ALT 1100FT =
2018-09-18 23:00 METAR CYKZ 182300Z 35010KT 15SM FEW260 19/15 A2987 RMK CI2 SLP117 DENSITY ALT
                 1300FT =
2018-09-18 22:00 METAR CYKZ 182200Z 01011KT 15SM FEW260 21/15 A2986 RMK CI2 SLP111 DENSITY ALT
                 1700FT =
2018-09-18 21:00 METAR CYKZ 182100Z 35011G18KT 15SM SKC 24/17 A2985 RMK SLP108 DENSITY ALT 2000FT
                 =
2018-09-18 20:00 METAR CYKZ 182000Z 35006G15KT 310V010 15SM SKC 25/18 A2984 RMK SLP103 DENSITY
                 ALT 2100FT =
2018-09-18 19:00 METAR CYKZ 181900Z 36009KT 300V020 15SM FEW035 FEW260 26/17 A2984 RMK CF1CI1 CF
                 TR CI TR SLP103 DENSITY ALT 2200FT =
2018-09-18 18:00 METAR CYKZ 181800Z 33008G15KT 300V010 15SM FEW035 25/17 A2985 RMK CF1 CF TR
                 SLP107 DENSITY ALT 2100FT =
2018-09-18 17:00 METAR CYKZ 181700Z 32009G17KT 15SM SCT030 25/17 A2986 RMK CU3 SLP111 DENSITY ALT
                 2000FT =
2018-09-18 16:41 METAR CYKZ 181641Z 33011KT 15SM SCT030 25/18 A2987 RMK CU3 WSHFT 1627 SLP112
                 DENSITY ALT 2100FT =
2018-09-18 16:00 METAR CYKZ 181600Z 33012KT 280V350 15SM SCT025 24/18 A2986 RMK CU4 SLP111
                 DENSITY ALT 2000FT =
2018-09-18 15:00 METAR CYKZ 181500Z 31007KT 270V360 15SM BKN017 23/19 A2986 RMK SC7 SLP111
                 DENSITY ALT 1900FT =
2018-09-18 14:51 METAR CYKZ 181451Z 32007KT 15SM BKN015 23/19 A2986 RMK SC7 SLP111 DENSITY ALT
                 1800FT =
2018-09-18 14:04 METAR CYKZ 181404Z 32007KT 290V360 15SM BKN012 BKN120 21/19 A2987 RMK SC6AC1 AC
                 TR SLP113 DENSITY ALT 1600FT =
2018-09-18 14:00 METAR CYKZ 181400Z 34007KT 15SM BKN009 21/19 A2986 RMK SC7 SLP112 DENSITY ALT
                 1600FT =
2018-09-18 13:26 METAR CYKZ 181326Z 35008KT 15SM OVC009 21/19 A2985 RMK SC8 SLP109 DENSITY ALT
                 1600FT =
2018-09-18 13:14 METAR CYKZ 181314Z 35008KT 15SM BKN011 21/19 A2985 RMK SC6 SLP109 DENSITY ALT
                 1600FT =
2018-09-18 13:00 METAR CYKZ 181300Z 34011G16KT 15SM SCT011 21/19 A2985 RMK SC3 SLP109 DENSITY ALT
                 1600FT =
2018-09-18 12:00 METAR CYKZ 181200Z 33007KT 15SM FEW180 FEW260 20/19 A2985 RMK AC1CI2 AC TR
                 SLP108 DENSITY ALT 1600FT =
2018-09-18 11:00 METAR CYKZ 181100Z VRB02KT 15SM FEW080 FEW260 19/18 A2984 RMK AC1CI1 AC TR CI TR
                 SLP102 DENSITY ALT 1500FT =
2018-09-18 10:00 METAR CYKZ 181000Z VRB02KT 15SM FEW080 20/18 A2983 RMK AC1 SLP100 DENSITY ALT
                 1500FT =
2018-09-18 09:00 METAR CYKZ 180900Z 00000KT 15SM FEW080 20/19 A2983 RMK AC1 AC TR SLP100 DENSITY
                 ALT 1500FT =
2018-09-18 08:00 METAR CYKZ 180800Z 00000KT 15SM FEW050 FEW260 19/18 A2984 RMK SC1CI1 CI TR
                 SLP102 DENSITY ALT 1400FT =
2018-09-18 07:00 METAR CYKZ 180700Z 33002KT 15SM FEW050 FEW260 18/17 A2985 RMK SC1CI1 CI TR
                 SLP107 DENSITY ALT 1200FT =
2018-09-18 06:00 METAR CYKZ 180600Z 00000KT 15SM FEW260 18/17 A2986 RMK CI1 CI TR SLP111 DENSITY
                 ALT 1300FT =
2018-09-18 05:00 METAR CYKZ 180500Z 00000KT 15SM SKC 20/19 A2987 RMK SLP113 DENSITY ALT 1500FT =
2018-09-18 04:00 METAR CYKZ 180400Z 19002KT 15SM FEW040 FEW260 21/19 A2988 RMK SC1CI1 CI TR
                 SLP117 DENSITY ALT 1600FT =

Support USWX by starting your Amazon purchase here.